createdAt,value
2018-11-01T00:01:35.513Z,68.30
2018-11-01T00:04:07.531Z,68.40
2018-11-01T00:06:40.051Z,68.70
2018-11-01T00:09:11.830Z,68.80
2018-11-01T00:11:43.530Z,69.10
2018-11-01T00:14:15.130Z,69.20
2018-11-01T00:16:46.750Z,69.10
2018-11-01T00:19:17.870Z,69.50
2018-11-01T00:21:49.752Z,70.30
2018-11-01T00:24:21.231Z,71.10
2018-11-01T00:26:52.930Z,70.90
2018-11-01T00:29:24.550Z,70.70
2018-11-01T00:31:56.510Z,70.60
2018-11-01T00:34:28.650Z,70.80
2018-11-01T00:37:00.791Z,71.30
2018-11-01T00:39:32.311Z,71.40
2018-11-01T00:42:03.551Z,71.10
2018-11-01T00:44:34.850Z,70.50
2018-11-01T00:47:06.892Z,69.70
2018-11-01T00:49:38.330Z,71.00
2018-11-01T00:52:10.710Z,71.40
2018-11-01T00:54:42.711Z,71.70
2018-11-01T00:57:14.731Z,71.60
2018-11-01T00:59:46.591Z,71.00
2018-11-01T01:02:18.751Z,71.30
2018-11-01T01:04:51.573Z,71.20
2018-11-01T01:07:23.396Z,71.30
2018-11-01T01:09:55.410Z,71.50
2018-11-01T01:12:26.970Z,71.70
2018-11-01T01:14:59.030Z,71.80
2018-11-01T01:17:30.530Z,72.40
2018-11-01T01:20:03.031Z,72.90
2018-11-01T01:22:34.930Z,72.30
2018-11-01T01:25:07.811Z,72.50
2018-11-01T01:27:39.995Z,72.40
2018-11-01T01:30:14.870Z,72.40
2018-11-01T01:32:47.657Z,72.30
2018-11-01T01:35:19.890Z,72.50
2018-11-01T01:37:51.273Z,72.40
2018-11-01T01:40:24.330Z,72.40
2018-11-01T01:42:56.371Z,72.60
2018-11-01T01:45:28.010Z,72.70
2018-11-01T01:47:59.470Z,72.60
2018-11-01T01:50:30.126Z,72.90
2018-11-01T01:53:02.550Z,72.90
2018-11-01T01:55:34.451Z,73.00
2018-11-01T01:58:05.970Z,72.90
2018-11-01T02:00:38.590Z,73.00
2018-11-01T02:03:10.130Z,73.10
2018-11-01T02:05:41.951Z,73.10
2018-11-01T02:08:14.193Z,73.50
2018-11-01T02:10:46.231Z,73.80
2018-11-01T02:13:19.590Z,74.30
2018-11-01T02:15:51.650Z,73.60
2018-11-01T02:18:23.270Z,73.50
2018-11-01T02:20:55.110Z,73.80
2018-11-01T02:23:26.834Z,74.00
2018-11-01T02:25:59.409Z,74.10
2018-11-01T02:28:31.370Z,74.10
2018-11-01T02:31:03.630Z,73.60
2018-11-01T02:33:35.350Z,73.30
2018-11-01T02:36:07.230Z,73.20
2018-11-01T02:38:39.317Z,73.40
2018-11-01T02:41:10.872Z,73.40
2018-11-01T02:43:42.552Z,73.50
2018-11-01T02:46:14.471Z,73.70
2018-11-01T02:48:46.450Z,73.90
2018-11-01T02:51:18.733Z,74.20
2018-11-01T02:53:49.873Z,74.20
2018-11-01T02:56:21.710Z,74.30
2018-11-01T02:58:53.190Z,74.10
2018-11-01T03:01:25.450Z,74.20
2018-11-01T03:03:57.831Z,74.40
2018-11-01T03:06:29.850Z,74.40
2018-11-01T03:09:01.271Z,74.30
2018-11-01T03:11:32.850Z,74.30
2018-11-01T03:14:05.390Z,74.40
2018-11-01T03:16:36.990Z,74.40
2018-11-01T03:19:09.830Z,74.30
2018-11-01T03:21:40.638Z,74.60
2018-11-01T03:24:12.633Z,76.00
2018-11-01T03:26:44.432Z,75.20
2018-11-01T03:29:17.610Z,75.10
2018-11-01T03:31:49.826Z,75.10
2018-11-01T03:34:22.008Z,75.00
2018-11-01T03:36:54.550Z,74.90
2018-11-01T03:39:26.729Z,75.20
2018-11-01T03:41:58.290Z,75.70
2018-11-01T03:44:30.370Z,76.20
2018-11-01T03:47:01.733Z,76.60
2018-11-01T03:49:34.250Z,76.40
2018-11-01T03:52:06.203Z,76.30
2018-11-01T03:54:38.451Z,77.60
2018-11-01T03:57:10.411Z,77.90
2018-11-01T03:59:42.214Z,77.00
2018-11-01T04:02:14.010Z,78.30
2018-11-01T04:04:46.269Z,77.30
2018-11-01T04:07:18.434Z,77.20
2018-11-01T04:09:50.069Z,77.00
2018-11-01T04:12:22.573Z,77.30
2018-11-01T04:14:54.651Z,76.50
2018-11-01T04:17:26.269Z,77.10
2018-11-01T04:19:57.810Z,77.50
2018-11-01T04:22:29.110Z,77.20
2018-11-01T04:25:00.209Z,77.50
2018-11-01T04:27:32.750Z,77.70
2018-11-01T04:30:04.990Z,78.20
2018-11-01T04:32:35.510Z,78.10
2018-11-01T04:35:07.630Z,78.00
2018-11-01T04:37:39.632Z,77.20
2018-11-01T04:40:12.730Z,77.20
2018-11-01T04:42:44.251Z,77.70
2018-11-01T04:45:16.256Z,78.20
2018-11-01T04:47:48.101Z,77.00
2018-11-01T04:50:19.510Z,77.30
2018-11-01T04:52:50.870Z,77.40
2018-11-01T04:55:22.810Z,77.50
2018-11-01T04:57:54.389Z,77.40
2018-11-01T05:00:27.251Z,77.70
2018-11-01T05:02:58.809Z,77.70
2018-11-01T05:05:30.890Z,78.10
2018-11-01T05:08:02.165Z,78.60
2018-11-01T05:10:34.270Z,78.90
2018-11-01T05:13:05.850Z,78.90
2018-11-01T05:15:38.286Z,79.00
2018-11-01T05:18:10.650Z,79.20
2018-11-01T05:20:42.872Z,79.40
2018-11-01T05:23:14.590Z,79.60
2018-11-01T05:25:46.147Z,79.70
2018-11-01T05:28:17.951Z,79.20
2018-11-01T05:30:49.870Z,78.60
2018-11-01T05:33:21.570Z,78.50
2018-11-01T05:35:53.570Z,78.00
2018-11-01T05:38:26.170Z,77.50
2018-11-01T05:40:58.190Z,77.70
2018-11-01T05:43:30.230Z,77.70
2018-11-01T05:46:02.330Z,77.60
2018-11-01T05:48:34.730Z,77.20
2018-11-01T05:51:06.290Z,77.20
2018-11-01T05:53:38.210Z,76.90
2018-11-01T05:56:10.890Z,76.80
2018-11-01T05:58:42.890Z,76.80
2018-11-01T06:01:15.450Z,78.10
2018-11-01T06:03:47.630Z,77.90
2018-11-01T06:06:19.650Z,78.30
2018-11-01T06:08:52.730Z,77.80
2018-11-01T06:11:25.113Z,78.20
2018-11-01T06:13:57.156Z,78.00
2018-11-01T06:16:29.130Z,78.50
2018-11-01T06:19:00.991Z,78.40
2018-11-01T06:21:33.130Z,78.30
2018-11-01T06:24:04.570Z,78.80
2018-11-01T06:26:37.490Z,79.00
2018-11-01T06:29:09.750Z,79.40
2018-11-01T06:31:41.490Z,79.30
2018-11-01T06:34:47.153Z,79.10
2018-11-01T06:37:18.690Z,78.70
2018-11-01T06:39:50.351Z,78.30
2018-11-01T06:42:22.870Z,78.20
2018-11-01T06:44:55.014Z,77.90
2018-11-01T06:47:27.390Z,77.90
2018-11-01T06:49:59.010Z,78.00
2018-11-01T06:52:31.220Z,77.50
2018-11-01T06:55:03.171Z,77.40
2018-11-01T06:57:34.710Z,77.10
2018-11-01T07:00:07.830Z,77.80
2018-11-01T07:02:40.449Z,76.90
2018-11-01T07:05:12.449Z,76.90
2018-11-01T07:07:44.610Z,76.90
2018-11-01T07:10:17.850Z,76.80
2018-11-01T07:12:49.869Z,77.00
2018-11-01T07:15:22.378Z,77.20
2018-11-01T07:17:54.610Z,77.00
2018-11-01T07:20:26.610Z,77.00
2018-11-01T07:22:58.250Z,77.30
2018-11-01T07:25:29.940Z,77.30
2018-11-01T07:28:02.150Z,77.10
2018-11-01T07:30:33.850Z,77.50
2018-11-01T07:33:06.031Z,77.40
2018-11-01T07:35:38.590Z,77.60
2018-11-01T07:38:09.930Z,77.60
2018-11-01T07:40:41.969Z,77.80
2018-11-01T07:43:13.730Z,77.70
2018-11-01T07:45:44.930Z,77.80
2018-11-01T07:48:16.329Z,77.70
2018-11-01T07:50:47.770Z,77.70
2018-11-01T07:53:19.651Z,77.90
2018-11-01T07:55:51.911Z,77.90
2018-11-01T07:58:24.134Z,77.80
2018-11-01T08:00:55.670Z,77.70
2018-11-01T08:03:27.730Z,77.70
2018-11-01T08:05:58.929Z,77.70
2018-11-01T08:08:30.710Z,77.70
2018-11-01T08:11:02.810Z,77.70
2018-11-01T08:13:34.870Z,77.60
2018-11-01T08:16:07.770Z,77.00
2018-11-01T08:18:40.130Z,77.30
2018-11-01T08:21:11.692Z,77.60
2018-11-01T08:23:42.790Z,77.40
2018-11-01T08:26:14.870Z,77.60
2018-11-01T08:28:47.329Z,77.40
2018-11-01T08:31:20.030Z,77.20
2018-11-01T08:33:52.349Z,76.90
2018-11-01T08:36:25.210Z,76.90
2018-11-01T08:38:57.553Z,76.70
2018-11-01T08:41:29.558Z,76.20
2018-11-01T08:44:01.570Z,76.10
2018-11-01T08:46:33.551Z,76.20
2018-11-01T08:49:05.611Z,76.00
2018-11-01T08:51:37.631Z,76.00
2018-11-01T08:54:09.530Z,75.50
2018-11-01T08:56:40.751Z,75.80
2018-11-01T08:59:12.991Z,75.80
2018-11-01T09:01:45.951Z,75.90
2018-11-01T09:04:17.624Z,75.70
2018-11-01T09:06:50.333Z,75.70
2018-11-01T09:09:22.371Z,75.80
2018-11-01T09:11:54.411Z,75.70
2018-11-01T09:14:26.543Z,75.90
2018-11-01T09:16:58.071Z,75.90
2018-11-01T09:19:30.351Z,75.80
2018-11-01T09:22:02.011Z,75.60
2018-11-01T09:24:33.970Z,75.60
2018-11-01T09:27:05.788Z,75.80
2018-11-01T09:29:37.087Z,75.20
2018-11-01T09:32:09.257Z,75.60
2018-11-01T09:34:41.238Z,75.60
2018-11-01T09:37:13.750Z,75.30
2018-11-01T09:39:45.850Z,75.20
2018-11-01T09:42:18.086Z,74.80
2018-11-01T09:44:49.963Z,74.60
2018-11-01T09:47:22.385Z,74.50
2018-11-01T09:49:54.171Z,74.20
2018-11-01T09:52:26.011Z,74.60
2018-11-01T09:54:58.390Z,74.40
2018-11-01T09:57:29.891Z,74.10
2018-11-01T10:00:01.691Z,74.60
2018-11-01T10:02:33.163Z,74.50
2018-11-01T10:05:04.960Z,74.40
2018-11-01T10:07:36.658Z,74.30
2018-11-01T10:10:09.779Z,73.50
2018-11-01T10:12:43.337Z,73.10
2018-11-01T10:15:14.783Z,73.60
2018-11-01T10:17:48.139Z,73.20
2018-11-01T10:20:19.857Z,72.50
2018-11-01T10:22:51.528Z,72.60
2018-11-01T10:25:23.505Z,70.80
2018-11-01T10:27:56.120Z,71.80
2018-11-01T10:30:27.680Z,72.00
2018-11-01T10:32:59.862Z,71.00
2018-11-01T10:35:32.080Z,71.00
2018-11-01T10:38:03.481Z,68.80
2018-11-01T10:40:35.309Z,67.10
2018-11-01T10:43:07.020Z,65.00
2018-11-01T10:45:38.781Z,64.20
2018-11-01T10:48:11.021Z,62.60
2018-11-01T10:50:43.340Z,62.40
2018-11-01T10:53:14.980Z,60.70
2018-11-01T10:55:46.438Z,59.50
2018-11-01T10:58:19.238Z,59.30
2018-11-01T11:02:59.153Z,59.10
2018-11-01T11:05:31.785Z,60.90
2018-11-01T11:08:03.263Z,59.00
2018-11-01T11:10:34.866Z,57.80
2018-11-01T11:13:06.483Z,57.80
2018-11-01T11:15:38.451Z,58.20
2018-11-01T11:18:10.064Z,56.90
2018-11-01T11:20:41.851Z,56.90
2018-11-01T11:23:13.886Z,56.50
2018-11-01T11:25:47.099Z,54.90
2018-11-01T11:28:18.806Z,55.60
2018-11-01T11:30:50.440Z,54.50
2018-11-01T11:33:22.261Z,55.00
2018-11-01T11:35:54.297Z,55.00
2018-11-01T11:38:26.841Z,54.60
2018-11-01T11:40:58.741Z,53.80
2018-11-01T11:43:31.352Z,53.30
2018-11-01T11:46:03.785Z,52.80
2018-11-01T11:48:35.986Z,51.90
2018-11-01T11:51:07.833Z,52.00
2018-11-01T11:53:40.213Z,51.50
2018-11-01T11:56:12.134Z,51.50
2018-11-01T11:58:44.254Z,52.20
2018-11-01T12:01:16.313Z,52.10
2018-11-01T12:03:48.994Z,52.20
2018-11-01T12:06:21.446Z,52.40
2018-11-01T12:08:53.618Z,52.50
2018-11-01T12:11:25.494Z,53.70
2018-11-01T12:13:58.281Z,54.10
2018-11-01T12:16:30.215Z,54.10
2018-11-01T12:19:02.656Z,54.70
2018-11-01T12:21:33.870Z,57.00
2018-11-01T12:24:06.526Z,59.80
2018-11-01T12:26:38.377Z,56.20
2018-11-01T12:29:10.858Z,55.60
2018-11-01T12:31:42.718Z,55.70
2018-11-01T12:34:14.937Z,56.40
2018-11-01T12:36:47.737Z,56.90
2018-11-01T12:39:18.757Z,57.00
2018-11-01T12:41:50.578Z,57.00
2018-11-01T12:44:23.577Z,57.70
2018-11-01T12:46:55.260Z,58.40
2018-11-01T12:49:27.037Z,58.70
2018-11-01T12:51:59.318Z,58.90
2018-11-01T12:54:31.136Z,58.40
2018-11-01T12:57:05.760Z,57.60
2018-11-01T12:59:38.538Z,57.70
2018-11-01T13:02:11.639Z,58.00
2018-11-01T13:04:43.357Z,58.00
2018-11-01T13:07:15.238Z,57.90
2018-11-01T13:09:46.821Z,58.10
2018-11-01T13:12:19.698Z,58.40
2018-11-01T13:14:51.340Z,59.30
2018-11-01T13:17:24.623Z,59.00
2018-11-01T13:19:56.169Z,59.00
2018-11-01T13:22:27.958Z,59.10
2018-11-01T13:25:00.140Z,59.40
2018-11-01T13:27:31.758Z,60.00
2018-11-01T13:30:03.739Z,59.80
2018-11-01T13:32:36.286Z,60.10
2018-11-01T13:35:08.261Z,59.90
2018-11-01T13:37:40.578Z,59.90
2018-11-01T13:40:14.003Z,60.60
2018-11-01T13:42:45.760Z,61.60
2018-11-01T13:45:17.499Z,61.80
2018-11-01T13:47:50.164Z,60.90
2018-11-01T13:50:21.924Z,61.60
2018-11-01T13:52:53.679Z,62.30
2018-11-01T13:55:25.598Z,62.60
2018-11-01T13:57:58.060Z,63.20
2018-11-01T14:00:29.480Z,62.30
2018-11-01T14:03:01.460Z,62.40
2018-11-01T14:05:33.277Z,62.00
2018-11-01T14:08:06.120Z,62.30
2018-11-01T14:10:38.179Z,62.00
2018-11-01T14:13:10.647Z,62.10
2018-11-01T14:15:43.044Z,62.80
2018-11-01T14:18:14.399Z,62.90
2018-11-01T14:20:46.180Z,61.70
2018-11-01T14:23:18.319Z,61.40
2018-11-01T14:25:50.102Z,61.60
2018-11-01T14:28:21.599Z,61.50
2018-11-01T14:30:53.406Z,61.50
2018-11-01T14:33:25.122Z,60.50
2018-11-01T14:35:56.840Z,60.80
2018-11-01T14:38:30.640Z,61.50
2018-11-01T14:41:02.279Z,61.30
2018-11-01T14:43:33.719Z,61.50
2018-11-01T14:46:05.580Z,62.20
2018-11-01T14:48:38.219Z,62.00
2018-11-01T14:51:10.180Z,62.20
2018-11-01T14:53:41.913Z,61.90
2018-11-01T14:56:16.197Z,62.70
2018-11-01T14:58:47.895Z,62.00
2018-11-01T15:01:18.020Z,62.60
2018-11-01T15:03:49.739Z,63.30
2018-11-01T15:06:21.657Z,63.10
2018-11-01T15:08:52.908Z,62.60
2018-11-01T15:11:24.700Z,62.10
2018-11-01T15:13:55.940Z,61.90
2018-11-01T15:16:27.760Z,61.90
2018-11-01T15:19:00.442Z,62.30
2018-11-01T15:21:32.499Z,63.20
2018-11-01T15:24:04.307Z,63.30
2018-11-01T15:26:36.941Z,62.80
2018-11-01T15:29:10.519Z,62.60
2018-11-01T15:31:43.102Z,63.20
2018-11-01T15:34:15.518Z,64.20
2018-11-01T15:36:47.220Z,64.70
2018-11-01T15:39:18.859Z,65.60
2018-11-01T15:41:51.358Z,66.00
2018-11-01T15:44:24.298Z,66.40
2018-11-01T15:46:55.519Z,66.90
2018-11-01T15:49:28.019Z,67.00
2018-11-01T15:52:00.583Z,67.00
2018-11-01T15:54:32.558Z,67.10
2018-11-01T15:57:05.019Z,67.20
2018-11-01T15:59:38.660Z,67.20
2018-11-01T16:02:11.171Z,67.30
2018-11-01T16:04:43.498Z,67.70
2018-11-01T16:07:15.839Z,67.80
2018-11-01T16:09:48.261Z,67.50
2018-11-01T16:12:19.927Z,67.80
2018-11-01T16:14:52.200Z,67.80
2018-11-01T16:17:23.840Z,68.70
2018-11-01T16:19:56.581Z,68.00
2018-11-01T16:22:29.140Z,68.10
2018-11-01T16:25:01.281Z,68.10
2018-11-01T16:27:33.580Z,68.20
2018-11-01T16:30:06.120Z,68.40
2018-11-01T16:32:39.200Z,68.60
2018-11-01T16:35:11.080Z,68.60
2018-11-01T16:37:43.660Z,68.70
2018-11-01T16:40:15.600Z,68.80
2018-11-01T16:42:47.319Z,68.50
2018-11-01T16:45:19.743Z,68.30
2018-11-01T16:47:51.400Z,68.70
2018-11-01T16:50:23.140Z,68.80
2018-11-01T16:52:54.880Z,68.60
2018-11-01T16:55:26.540Z,68.90
2018-11-01T16:58:00.480Z,68.60
2018-11-01T17:00:32.517Z,68.40
2018-11-01T17:03:06.022Z,68.60
2018-11-01T17:05:37.279Z,69.50
2018-11-01T17:08:09.364Z,69.90
2018-11-01T17:10:40.480Z,70.00
2018-11-01T17:13:12.340Z,69.80
2018-11-01T17:15:44.140Z,70.10
2018-11-01T17:18:16.600Z,70.30
2018-11-01T17:20:47.819Z,70.10
2018-11-01T17:23:19.980Z,70.20
2018-11-01T17:25:51.840Z,70.10
2018-11-01T17:28:24.463Z,69.90
2018-11-01T17:30:55.999Z,69.80
2018-11-01T17:33:28.279Z,70.20
2018-11-01T17:35:59.500Z,70.30
2018-11-01T17:38:31.720Z,70.30
2018-11-01T17:41:03.819Z,70.40
2018-11-01T17:43:35.322Z,70.30
2018-11-01T17:46:07.956Z,70.30
2018-11-01T17:48:41.199Z,70.50
2018-11-01T17:51:12.952Z,70.50
2018-11-01T17:53:44.684Z,70.30
2018-11-01T17:56:16.299Z,70.40
2018-11-01T17:58:48.959Z,70.30
2018-11-01T18:01:21.219Z,70.30
2018-11-01T18:03:53.079Z,70.60
2018-11-01T18:06:25.362Z,70.80
2018-11-01T18:08:56.619Z,70.90
2018-11-01T18:11:28.423Z,70.90
2018-11-01T18:14:00.540Z,71.30
2018-11-01T18:16:31.703Z,71.60
2018-11-01T18:19:04.360Z,71.60
2018-11-01T18:21:36.286Z,71.80
2018-11-01T18:24:08.519Z,71.90
2018-11-01T18:26:40.359Z,72.00
2018-11-01T18:29:12.239Z,72.30
2018-11-01T18:31:44.541Z,72.60
2018-11-01T18:34:19.097Z,72.70
2018-11-01T18:36:51.940Z,73.00
2018-11-01T18:39:24.165Z,73.10
2018-11-01T18:41:56.659Z,73.00
2018-11-01T18:44:28.959Z,73.20
2018-11-01T18:47:02.960Z,73.30
2018-11-01T18:49:34.700Z,73.40
2018-11-01T18:52:06.424Z,73.50
2018-11-01T18:54:38.876Z,73.60
2018-11-01T18:57:10.419Z,73.60
2018-11-01T18:59:44.439Z,73.80
2018-11-01T19:02:15.979Z,73.90
2018-11-01T19:04:48.201Z,73.80
2018-11-01T19:07:20.120Z,74.00
2018-11-01T19:09:52.659Z,74.70
2018-11-01T19:12:24.680Z,74.20
2018-11-01T19:14:57.152Z,74.30
2018-11-01T19:17:29.119Z,74.60
2018-11-01T19:20:02.039Z,75.10
2018-11-01T19:22:33.879Z,75.00
2018-11-01T19:25:06.020Z,75.00
2018-11-01T19:27:38.139Z,75.00
2018-11-01T19:30:13.602Z,75.20
2018-11-01T19:32:45.263Z,75.30
2018-11-01T19:35:18.321Z,75.60
2018-11-01T19:37:49.679Z,75.70
2018-11-01T19:40:21.948Z,75.80
2018-11-01T19:42:53.341Z,75.90
2018-11-01T19:45:25.441Z,75.50
2018-11-01T19:47:57.119Z,75.50
2018-11-01T19:50:29.840Z,75.50
2018-11-01T19:53:02.042Z,75.30
2018-11-01T19:55:33.920Z,75.30
2018-11-01T19:58:05.799Z,75.90
2018-11-01T20:00:37.799Z,76.50
2018-11-01T20:03:10.099Z,76.00
2018-11-01T20:05:41.260Z,75.70
2018-11-01T20:08:13.176Z,75.70
2018-11-01T20:10:45.559Z,75.80
2018-11-01T20:13:17.180Z,75.90
2018-11-01T20:15:48.821Z,75.50
2018-11-01T20:18:20.440Z,75.70
2018-11-01T20:20:52.520Z,75.50
2018-11-01T20:23:25.021Z,75.50
2018-11-01T20:25:57.460Z,75.60
2018-11-01T20:28:29.700Z,75.70
2018-11-01T20:31:01.354Z,75.60
2018-11-01T20:33:33.146Z,76.20
2018-11-01T20:36:05.441Z,75.50
2018-11-01T20:38:37.056Z,75.40
2018-11-01T20:41:09.459Z,75.10
2018-11-01T20:43:40.039Z,75.00
2018-11-01T20:46:14.563Z,74.90
2018-11-01T20:48:46.299Z,74.90
2018-11-01T20:51:19.839Z,74.60
2018-11-01T20:53:51.359Z,74.30
2018-11-01T20:56:24.483Z,74.20
2018-11-01T20:58:56.344Z,74.30
2018-11-01T21:01:30.061Z,74.10
2018-11-01T21:04:01.780Z,74.10
2018-11-01T21:06:33.339Z,73.60
2018-11-01T21:09:06.200Z,73.40
2018-11-01T21:11:39.028Z,72.80
2018-11-01T21:14:11.981Z,72.80
2018-11-01T21:16:43.794Z,72.80
2018-11-01T21:19:16.460Z,73.10
2018-11-01T21:21:49.400Z,72.80
2018-11-01T21:24:21.240Z,73.10
2018-11-01T21:26:52.619Z,73.30
2018-11-01T21:29:24.721Z,73.50
2018-11-01T21:31:56.459Z,73.40
2018-11-01T21:34:28.400Z,73.00
2018-11-01T21:37:00.807Z,72.90
2018-11-01T21:39:32.646Z,73.00
2018-11-01T21:42:03.940Z,72.80
2018-11-01T21:44:36.879Z,73.10
2018-11-01T21:47:08.059Z,72.60
2018-11-01T21:49:39.739Z,72.60
2018-11-01T21:52:12.479Z,72.70
2018-11-01T21:54:44.340Z,72.70
2018-11-01T21:57:16.263Z,72.70
2018-11-01T21:59:47.979Z,72.80
2018-11-01T22:02:19.704Z,72.60
2018-11-01T22:04:51.840Z,72.80
2018-11-01T22:07:23.681Z,73.00
2018-11-01T22:09:56.127Z,73.00
2018-11-01T22:12:28.020Z,73.00
2018-11-01T22:14:59.859Z,73.30
2018-11-01T22:17:32.520Z,73.40
2018-11-01T22:20:05.583Z,73.50
2018-11-01T22:22:38.260Z,73.40
2018-11-01T22:25:10.512Z,73.30
2018-11-01T22:27:43.039Z,73.30
2018-11-01T22:30:15.040Z,73.30
2018-11-01T22:32:46.641Z,73.60
2018-11-01T22:35:18.699Z,73.80
2018-11-01T22:37:50.179Z,73.70
2018-11-01T22:40:22.759Z,73.60
2018-11-01T22:42:54.779Z,73.50
2018-11-01T22:45:27.240Z,73.50
2018-11-01T22:47:59.639Z,73.30
2018-11-01T22:50:32.218Z,73.20
2018-11-01T22:53:03.879Z,73.10
2018-11-01T22:55:36.639Z,73.00
2018-11-01T22:58:07.979Z,73.00
2018-11-01T23:00:45.719Z,73.30
2018-11-01T23:03:17.722Z,73.10
2018-11-01T23:05:49.520Z,73.00
2018-11-01T23:08:21.840Z,72.90
2018-11-01T23:10:53.199Z,73.10
2018-11-01T23:13:25.219Z,72.90
2018-11-01T23:15:56.999Z,73.20
2018-11-01T23:18:29.219Z,73.40
2018-11-01T23:21:00.959Z,73.40
2018-11-01T23:23:32.777Z,73.30
2018-11-01T23:26:04.607Z,73.50
2018-11-01T23:28:36.263Z,73.40
2018-11-01T23:31:08.359Z,73.40
2018-11-01T23:33:40.960Z,73.40
2018-11-01T23:36:11.339Z,73.40
2018-11-01T23:38:47.243Z,73.70
2018-11-01T23:41:22.478Z,73.80
2018-11-01T23:43:58.859Z,73.90
2018-11-01T23:46:35.099Z,74.10
2018-11-01T23:49:11.359Z,74.10
2018-11-01T23:51:44.399Z,73.90
2018-11-01T23:54:16.399Z,74.30
2018-11-01T23:56:47.679Z,74.50
2018-11-01T23:59:18.999Z,74.90
